Terminal Aerodrome Forecast
Issued by NWS Wilmington, NC

Home | Current Version | Previous Version | Text Only | Print | Product List | Glossary On
Versions: 1 2 3 4 5 6 7 8 9 10 11 12 13 14 15 16 17 18 19
000
FTUS42 KILM 271120
TAFLBT
TAF
KLBT 271120Z 2712/2812 23006KT P6SM VCSH SCT008 BKN040 OVC100
      TEMPO 2713/2715 -SHRA BKN008
     FM271500 32010G17KT 3SM -RA BR OVC004
     FM271700 36010KT 6SM -RA BKN010 OVC030
     FM272100 02010KT P6SM BKN016=

USA.gov is the U.S. government's official web portal to all federal, state and local government web resources and services.